Terminal Aerodrome Forecast
Issued by NWS Corpus Christi, TX

Home | Current Version | Previous Version | Text Only | Print | Product List | Glossary On
Versions: 1 2 3 4 5 6 7 8 9 10 11 12 13 14 15 16 17 18 19 20 21 22 23 24
000
FTUS44 KCRP 261730
TAFCRP
TAF
KCRP 261730Z 2618/2718 16018G26KT P6SM SCT025 BKN035 OVC150
     FM262200 14018G28KT P6SM VCTS BKN040CB OVC150
     FM270300 14015KT P6SM BKN015 BKN025
     FM270900 15008KT P6SM VCSH BKN015
     FM271400 16015G22KT P6SM VCSH BKN025=

USA.gov is the U.S. government's official web portal to all federal, state and local government web resources and services.